sensor_id;sensor_type;location;lat;lon;timestamp;pressure;altitude;pressure_sealevel;temperature;humidity
71149;BME280;59072;42.144;25.200;2023-02-19T00:00:03;100273.06;;;7.88;54.84
71149;BME280;59072;42.144;25.200;2023-02-19T00:02:29;100273.03;;;7.53;55.97
71149;BME280;59072;42.144;25.200;2023-02-19T00:04:54;100252.94;;;6.88;57.40
71149;BME280;59072;42.144;25.200;2023-02-19T00:07:20;100257.22;;;6.67;59.12
71149;BME280;59072;42.144;25.200;2023-02-19T00:09:45;100243.72;;;6.83;58.48
71149;BME280;59072;42.144;25.200;2023-02-19T00:12:10;100258.69;;;6.91;58.41
71149;BME280;59072;42.144;25.200;2023-02-19T00:14:36;100261.03;;;7.29;58.10
71149;BME280;59072;42.144;25.200;2023-02-19T00:17:01;100256.16;;;7.33;57.63
71149;BME280;59072;42.144;25.200;2023-02-19T00:19:27;100260.25;;;7.63;56.92
71149;BME280;59072;42.144;25.200;2023-02-19T00:21:52;100262.94;;;7.70;56.31
71149;BME280;59072;42.144;25.200;2023-02-19T00:24:19;100232.94;;;7.41;56.91
71149;BME280;59072;42.144;25.200;2023-02-19T00:26:45;100255.59;;;7.72;56.59
71149;BME280;59072;42.144;25.200;2023-02-19T00:29:19;100233.88;;;7.55;56.78
71149;BME280;59072;42.144;25.200;2023-02-19T00:31:45;100243.16;;;7.73;56.88
71149;BME280;59072;42.144;25.200;2023-02-19T00:34:12;100241.34;;;7.80;56.73
71149;BME280;59072;42.144;25.200;2023-02-19T00:36:42;100233.50;;;7.58;56.68
71149;BME280;59072;42.144;25.200;2023-02-19T00:39:09;100224.84;;;7.50;56.50
71149;BME280;59072;42.144;25.200;2023-02-19T00:41:35;100232.31;;;7.68;56.32
71149;BME280;59072;42.144;25.200;2023-02-19T00:44:06;100221.31;;;7.71;56.37
71149;BME280;59072;42.144;25.200;2023-02-19T00:46:43;100213.56;;;7.76;55.87
71149;BME280;59072;42.144;25.200;2023-02-19T00:49:16;100201.66;;;7.65;56.29
71149;BME280;59072;42.144;25.200;2023-02-19T00:51:42;100205.88;;;7.53;56.81
71149;BME280;59072;42.144;25.200;2023-02-19T00:54:09;100209.97;;;7.55;56.70
71149;BME280;59072;42.144;25.200;2023-02-19T00:56:35;100214.00;;;7.16;57.57
71149;BME280;59072;42.144;25.200;2023-02-19T00:59:03;100197.53;;;6.28;60.43
71149;BME280;59072;42.144;25.200;2023-02-19T01:01:28;100206.22;;;5.92;60.67
71149;BME280;59072;42.144;25.200;2023-02-19T01:03:54;100196.94;;;5.96;61.39
71149;BME280;59072;42.144;25.200;2023-02-19T01:06:19;100198.66;;;6.40;59.59
71149;BME280;59072;42.144;25.200;2023-02-19T01:08:46;100206.88;;;6.67;60.25
71149;BME280;59072;42.144;25.200;2023-02-19T01:11:12;100185.81;;;6.59;60.23
71149;BME280;59072;42.144;25.200;2023-02-19T01:13:38;100196.13;;;6.75;59.97
71149;BME280;59072;42.144;25.200;2023-02-19T01:16:12;100179.38;;;6.68;59.77
71149;BME280;59072;42.144;25.200;2023-02-19T01:18:38;100192.50;;;6.76;59.47
71149;BME280;59072;42.144;25.200;2023-02-19T01:21:06;100196.13;;;6.75;59.88
71149;BME280;59072;42.144;25.200;2023-02-19T01:23:32;100193.69;;;6.74;59.38
71149;BME280;59072;42.144;25.200;2023-02-19T01:25:57;100178.97;;;6.71;59.84
71149;BME280;59072;42.144;25.200;2023-02-19T01:28:25;100200.22;;;6.78;59.75
71149;BME280;59072;42.144;25.200;2023-02-19T01:30:53;100192.38;;;6.63;60.28
71149;BME280;59072;42.144;25.200;2023-02-19T01:33:19;100190.22;;;6.73;59.90
71149;BME280;59072;42.144;25.200;2023-02-19T01:35:44;100192.06;;;6.73;59.81
71149;BME280;59072;42.144;25.200;2023-02-19T01:38:09;100183.22;;;6.66;59.28
71149;BME280;59072;42.144;25.200;2023-02-19T01:40:35;100194.25;;;6.69;59.71
71149;BME280;59072;42.144;25.200;2023-02-19T01:43:00;100174.38;;;6.58;58.94
71149;BME280;59072;42.144;25.200;2023-02-19T01:45:28;100203.97;;;6.83;59.06
71149;BME280;59072;42.144;25.200;2023-02-19T01:51:10;100181.66;;;6.99;59.29
71149;BME280;59072;42.144;25.200;2023-02-19T01:53:42;100161.53;;;6.83;59.83
71149;BME280;59072;42.144;25.200;2023-02-19T01:56:09;100149.06;;;6.77;59.17
71149;BME280;59072;42.144;25.200;2023-02-19T01:58:38;100153.69;;;6.69;59.90
71149;BME280;59072;42.144;25.200;2023-02-19T02:01:06;100170.81;;;6.94;60.01
71149;BME280;59072;42.144;25.200;2023-02-19T02:03:33;100175.41;;;7.07;58.95
71149;BME280;59072;42.144;25.200;2023-02-19T02:08:32;100178.69;;;7.09;59.27
71149;BME280;59072;42.144;25.200;2023-02-19T02:11:17;100177.19;;;7.00;59.21
71149;BME280;59072;42.144;25.200;2023-02-19T02:13:44;100161.66;;;6.97;59.58
71149;BME280;59072;42.144;25.200;2023-02-19T02:19:08;100182.47;;;7.00;60.06
71149;BME280;59072;42.144;25.200;2023-02-19T02:22:00;100175.63;;;7.12;59.70
71149;BME280;59072;42.144;25.200;2023-02-19T02:24:41;100153.13;;;7.01;59.64
71149;BME280;59072;42.144;25.200;2023-02-19T02:32:37;100182.91;;;7.03;60.55
71149;BME280;59072;42.144;25.200;2023-02-19T02:35:08;100181.81;;;7.19;60.27
71149;BME280;59072;42.144;25.200;2023-02-19T02:37:40;100179.31;;;7.11;60.39
71149;BME280;59072;42.144;25.200;2023-02-19T02:40:07;100176.69;;;6.90;61.07
71149;BME280;59072;42.144;25.200;2023-02-19T02:42:37;100166.75;;;6.70;62.35
71149;BME280;59072;42.144;25.200;2023-02-19T02:45:24;100183.66;;;6.91;62.12
71149;BME280;59072;42.144;25.200;2023-02-19T02:50:37;100182.16;;;6.60;62.96
71149;BME280;59072;42.144;25.200;2023-02-19T02:53:10;100177.56;;;6.11;63.47
71149;BME280;59072;42.144;25.200;2023-02-19T02:55:57;100183.38;;;6.21;63.96
71149;BME280;59072;42.144;25.200;2023-02-19T02:58:25;100193.59;;;6.24;63.37
71149;BME280;59072;42.144;25.200;2023-02-19T03:01:26;100204.16;;;6.02;64.75
71149;BME280;59072;42.144;25.200;2023-02-19T03:04:14;100170.31;;;5.83;65.35
71149;BME280;59072;42.144;25.200;2023-02-19T03:06:44;100170.97;;;5.70;65.18
71149;BME280;59072;42.144;25.200;2023-02-19T03:09:19;100196.31;;;6.09;63.67
71149;BME280;59072;42.144;25.200;2023-02-19T03:11:56;100189.28;;;6.01;63.40
71149;BME280;59072;42.144;25.200;2023-02-19T03:15:07;100204.16;;;6.02;63.43
71149;BME280;59072;42.144;25.200;2023-02-19T03:17:57;100200.41;;;5.82;63.46
71149;BME280;59072;42.144;25.200;2023-02-19T03:20:45;100197.16;;;5.95;63.90
71149;BME280;59072;42.144;25.200;2023-02-19T03:23:12;100210.72;;;5.92;63.27
71149;BME280;59072;42.144;25.200;2023-02-19T03:25:40;100217.25;;;6.26;62.75
71149;BME280;59072;42.144;25.200;2023-02-19T03:28:27;100229.69;;;5.66;64.63
71149;BME280;59072;42.144;25.200;2023-02-19T03:31:17;100223.22;;;5.38;66.00
71149;BME280;59072;42.144;25.200;2023-02-19T03:33:49;100201.16;;;4.78;67.30
71149;BME280;59072;42.144;25.200;2023-02-19T03:36:16;100198.50;;;4.55;67.40
71149;BME280;59072;42.144;25.200;2023-02-19T03:38:49;100216.78;;;5.03;66.38
71149;BME280;59072;42.144;25.200;2023-02-19T03:43:54;100224.84;;;5.24;65.42
71149;BME280;59072;42.144;25.200;2023-02-19T03:46:35;100204.72;;;5.23;65.60
71149;BME280;59072;42.144;25.200;2023-02-19T03:49:30;100229.88;;;5.49;65.03
71149;BME280;59072;42.144;25.200;2023-02-19T03:52:23;100228.97;;;5.72;63.76
71149;BME280;59072;42.144;25.200;2023-02-19T03:57:47;100222.69;;;5.73;64.57
71149;BME280;59072;42.144;25.200;2023-02-19T04:00:21;100230.44;;;5.89;63.82
71149;BME280;59072;42.144;25.200;2023-02-19T04:02:57;100237.38;;;5.60;64.34
71149;BME280;59072;42.144;25.200;2023-02-19T04:05:37;100233.63;;;5.70;64.34
71149;BME280;59072;42.144;25.200;2023-02-19T04:08:09;100202.53;;;5.42;64.26
71149;BME280;59072;42.144;25.200;2023-02-19T04:10:37;100212.38;;;5.33;63.75
71149;BME280;59072;42.144;25.200;2023-02-19T04:13:08;100212.56;;;5.47;64.48
71149;BME280;59072;42.144;25.200;2023-02-19T04:15:39;100196.97;;;5.52;64.18
71149;BME280;59072;42.144;25.200;2023-02-19T04:18:13;100222.41;;;5.68;62.88
71149;BME280;59072;42.144;25.200;2023-02-19T04:20:43;100227.00;;;5.21;64.05
71149;BME280;59072;42.144;25.200;2023-02-19T04:23:11;100221.28;;;5.17;64.26
71149;BME280;59072;42.144;25.200;2023-02-19T04:25:38;100232.44;;;5.04;65.38
71149;BME280;59072;42.144;25.200;2023-02-19T04:28:07;100252.50;;;4.76;65.60
71149;BME280;59072;42.144;25.200;2023-02-19T04:30:35;100248.50;;;4.57;66.89
71149;BME280;59072;42.144;25.200;2023-02-19T04:33:00;100266.13;;;4.88;64.96
71149;BME280;59072;42.144;25.200;2023-02-19T04:35:26;100266.72;;;4.75;65.47
71149;BME280;59072;42.144;25.200;2023-02-19T04:37:51;100249.91;;;4.45;66.33
71149;BME280;59072;42.144;25.200;2023-02-19T04:40:17;100262.22;;;4.29;67.18
71149;BME280;59072;42.144;25.200;2023-02-19T04:42:42;100252.88;;;4.50;65.88
71149;BME280;59072;42.144;25.200;2023-02-19T04:45:10;100265.59;;;4.69;65.73
71149;BME280;59072;42.144;25.200;2023-02-19T04:47:36;100246.34;;;4.60;66.13
71149;BME280;59072;42.144;25.200;2023-02-19T04:50:02;100241.88;;;4.61;66.14
71149;BME280;59072;42.144;25.200;2023-02-19T04:52:27;100264.34;;;4.80;66.38
71149;BME280;59072;42.144;25.200;2023-02-19T04:54:53;100246.91;;;4.94;65.77
71149;BME280;59072;42.144;25.200;2023-02-19T04:57:18;100258.56;;;5.22;64.96
71149;BME280;59072;42.144;25.200;2023-02-19T04:59:45;100265.59;;;5.15;65.71
71149;BME280;59072;42.144;25.200;2023-02-19T05:02:10;100283.97;;;5.32;65.12
71149;BME280;59072;42.144;25.200;2023-02-19T05:04:35;100259.44;;;5.00;65.35
71149;BME280;59072;42.144;25.200;2023-02-19T05:07:01;100274.22;;;5.09;65.20
71149;BME280;59072;42.144;25.200;2023-02-19T05:09:26;100281.16;;;5.10;65.09
71149;BME280;59072;42.144;25.200;2023-02-19T05:11:52;100273.97;;;5.19;65.30
71149;BME280;59072;42.144;25.200;2023-02-19T05:14:17;100283.69;;;5.03;65.46
71149;BME280;59072;42.144;25.200;2023-02-19T05:16:43;100305.97;;;5.09;65.34
71149;BME280;59072;42.144;25.200;2023-02-19T05:19:10;100293.03;;;4.91;65.77
71149;BME280;59072;42.144;25.200;2023-02-19T05:21:36;100317.22;;;5.26;65.71
71149;BME280;59072;42.144;25.200;2023-02-19T05:24:02;100313.13;;;5.23;65.52
71149;BME280;59072;42.144;25.200;2023-02-19T05:26:27;100314.97;;;5.38;65.67
71149;BME280;59072;42.144;25.200;2023-02-19T05:28:55;100315.06;;;5.44;65.14
71149;BME280;59072;42.144;25.200;2023-02-19T05:31:20;100321.25;;;5.37;65.23
71149;BME280;59072;42.144;25.200;2023-02-19T05:33:48;100316.59;;;5.62;64.71
71149;BME280;59072;42.144;25.200;2023-02-19T05:36:18;100321.41;;;5.58;64.23
71149;BME280;59072;42.144;25.200;2023-02-19T05:38:44;100323.97;;;5.67;64.39
71149;BME280;59072;42.144;25.200;2023-02-19T05:43:37;100314.28;;;5.59;63.99
71149;BME280;59072;42.144;25.200;2023-02-19T05:46:04;100311.94;;;5.26;65.55
71149;BME280;59072;42.144;25.200;2023-02-19T05:48:30;100336.56;;;5.64;64.23
71149;BME280;59072;42.144;25.200;2023-02-19T05:51:02;100341.94;;;5.56;64.24
71149;BME280;59072;42.144;25.200;2023-02-19T05:53:27;100343.63;;;4.80;65.83
71149;BME280;59072;42.144;25.200;2023-02-19T05:55:55;100337.91;;;4.37;66.26
71149;BME280;59072;42.144;25.200;2023-02-19T05:58:20;100330.16;;;3.88;68.17
71149;BME280;59072;42.144;25.200;2023-02-19T06:00:46;100357.06;;;3.67;68.83
71149;BME280;59072;42.144;25.200;2023-02-19T06:03:11;100336.94;;;3.74;68.19
71149;BME280;59072;42.144;25.200;2023-02-19T06:05:37;100367.91;;;4.05;67.62
71149;BME280;59072;42.144;25.200;2023-02-19T06:08:02;100359.34;;;3.94;68.09
71149;BME280;59072;42.144;25.200;2023-02-19T06:10:27;100368.75;;;3.89;68.71
71149;BME280;59072;42.144;25.200;2023-02-19T06:12:53;100361.38;;;4.32;67.30
71149;BME280;59072;42.144;25.200;2023-02-19T06:15:19;100366.31;;;4.27;67.29
71149;BME280;59072;42.144;25.200;2023-02-19T06:17:45;100354.66;;;4.60;67.22
71149;BME280;59072;42.144;25.200;2023-02-19T06:20:13;100345.47;;;5.02;65.81
71149;BME280;59072;42.144;25.200;2023-02-19T06:22:38;100366.56;;;5.34;65.41
71149;BME280;59072;42.144;25.200;2023-02-19T06:25:04;100362.00;;;5.66;64.49
71149;BME280;59072;42.144;25.200;2023-02-19T06:27:32;100357.31;;;5.91;63.61
71149;BME280;59072;42.144;25.200;2023-02-19T06:29:57;100363.84;;;6.18;63.71
71149;BME280;59072;42.144;25.200;2023-02-19T06:32:23;100368.56;;;6.37;63.06
71149;BME280;59072;42.144;25.200;2023-02-19T06:34:48;100346.19;;;6.40;62.33
71149;BME280;59072;42.144;25.200;2023-02-19T06:37:14;100343.94;;;6.73;61.55
71149;BME280;59072;42.144;25.200;2023-02-19T06:39:41;100378.44;;;7.16;60.53
71149;BME280;59072;42.144;25.200;2023-02-19T06:42:08;100366.28;;;7.22;61.03
71149;BME280;59072;42.144;25.200;2023-02-19T06:44:33;100365.31;;;7.51;61.23
71149;BME280;59072;42.144;25.200;2023-02-19T06:47:03;100363.25;;;7.75;60.57
71149;BME280;59072;42.144;25.200;2023-02-19T06:49:29;100384.06;;;7.99;60.76
71149;BME280;59072;42.144;25.200;2023-02-19T06:51:54;100380.50;;;8.20;60.27
71149;BME280;59072;42.144;25.200;2023-02-19T06:54:20;100373.75;;;8.53;59.50
71149;BME280;59072;42.144;25.200;2023-02-19T06:56:45;100389.84;;;8.93;58.91
71149;BME280;59072;42.144;25.200;2023-02-19T06:59:13;100384.63;;;9.19;58.90
71149;BME280;59072;42.144;25.200;2023-02-19T07:01:41;100372.56;;;9.77;58.19
71149;BME280;59072;42.144;25.200;2023-02-19T07:04:07;100365.38;;;9.91;56.53
71149;BME280;59072;42.144;25.200;2023-02-19T07:06:33;100365.69;;;10.48;54.47
71149;BME280;59072;42.144;25.200;2023-02-19T07:08:59;100383.75;;;10.91;53.39
71149;BME280;59072;42.144;25.200;2023-02-19T07:11:28;100383.69;;;11.36;52.86
71149;BME280;59072;42.144;25.200;2023-02-19T07:13:55;100367.09;;;11.59;52.11
71149;BME280;59072;42.144;25.200;2023-02-19T07:16:21;100360.19;;;12.01;50.09
71149;BME280;59072;42.144;25.200;2023-02-19T07:18:47;100375.06;;;12.34;50.30
71149;BME280;59072;42.144;25.200;2023-02-19T07:21:13;100381.69;;;12.80;48.91
71149;BME280;59072;42.144;25.200;2023-02-19T07:23:40;100379.25;;;13.09;47.97
71149;BME280;59072;42.144;25.200;2023-02-19T07:26:10;100371.31;;;13.33;47.50
71149;BME280;59072;42.144;25.200;2023-02-19T07:28:37;100381.19;;;13.86;46.88
71149;BME280;59072;42.144;25.200;2023-02-19T07:31:03;100388.25;;;14.16;44.75
71149;BME280;59072;42.144;25.200;2023-02-19T07:33:29;100388.09;;;14.46;44.69
71149;BME280;59072;42.144;25.200;2023-02-19T07:35:54;100380.38;;;14.73;43.99
71149;BME280;59072;42.144;25.200;2023-02-19T07:38:21;100359.94;;;15.01;42.53
71149;BME280;59072;42.144;25.200;2023-02-19T07:40:55;100372.78;;;15.27;40.75
71149;BME280;59072;42.144;25.200;2023-02-19T07:43:22;100366.94;;;15.31;40.67
71149;BME280;59072;42.144;25.200;2023-02-19T07:45:47;100383.63;;;15.66;39.15
71149;BME280;59072;42.144;25.200;2023-02-19T07:48:13;100382.06;;;15.71;39.33
71149;BME280;59072;42.144;25.200;2023-02-19T07:50:39;100377.31;;;15.73;39.07
71149;BME280;59072;42.144;25.200;2023-02-19T07:53:04;100362.78;;;15.91;38.17
71149;BME280;59072;42.144;25.200;2023-02-19T07:55:32;100373.78;;;16.28;37.92
71149;BME280;59072;42.144;25.200;2023-02-19T07:57:58;100376.59;;;16.38;37.53
71149;BME280;59072;42.144;25.200;2023-02-19T08:00:24;100370.19;;;16.39;37.84
71149;BME280;59072;42.144;25.200;2023-02-19T08:02:53;100366.97;;;16.64;36.88
71149;BME280;59072;42.144;25.200;2023-02-19T08:05:32;100372.16;;;16.71;36.88
71149;BME280;59072;42.144;25.200;2023-02-19T08:07:59;100380.94;;;16.61;36.69
71149;BME280;59072;42.144;25.200;2023-02-19T08:10:25;100379.69;;;16.25;36.85
71149;BME280;59072;42.144;25.200;2023-02-19T08:13:11;100360.75;;;16.20;37.20
71149;BME280;59072;42.144;25.200;2023-02-19T08:15:50;100391.72;;;16.39;37.11
71149;BME280;59072;42.144;25.200;2023-02-19T08:18:19;100371.91;;;16.51;36.74
71149;BME280;59072;42.144;25.200;2023-02-19T08:20:45;100383.06;;;16.81;36.48
71149;BME280;59072;42.144;25.200;2023-02-19T08:23:11;100372.81;;;17.05;36.50
71149;BME280;59072;42.144;25.200;2023-02-19T08:25:37;100382.69;;;17.22;35.82
71149;BME280;59072;42.144;25.200;2023-02-19T08:28:04;100364.69;;;17.27;35.56
71149;BME280;59072;42.144;25.200;2023-02-19T08:30:30;100357.63;;;17.21;35.78
71149;BME280;59072;42.144;25.200;2023-02-19T08:32:57;100379.84;;;17.34;35.85
71149;BME280;59072;42.144;25.200;2023-02-19T08:35:22;100379.66;;;17.13;35.62
71149;BME280;59072;42.144;25.200;2023-02-19T08:37:48;100382.91;;;17.15;35.59
71149;BME280;59072;42.144;25.200;2023-02-19T08:40:13;100363.00;;;17.21;35.67
71149;BME280;59072;42.144;25.200;2023-02-19T08:42:39;100377.59;;;17.25;35.31
71149;BME280;59072;42.144;25.200;2023-02-19T08:45:05;100365.72;;;17.21;35.53
71149;BME280;59072;42.144;25.200;2023-02-19T08:47:34;100365.72;;;17.21;35.83
71149;BME280;59072;42.144;25.200;2023-02-19T08:50:00;100359.19;;;17.12;35.55
71149;BME280;59072;42.144;25.200;2023-02-19T08:52:26;100365.38;;;17.45;35.70
71149;BME280;59072;42.144;25.200;2023-02-19T08:54:51;100366.69;;;17.42;35.21
71149;BME280;59072;42.144;25.200;2023-02-19T08:57:17;100347.72;;;17.64;35.40
71149;BME280;59072;42.144;25.200;2023-02-19T08:59:43;100366.84;;;17.63;35.38
71149;BME280;59072;42.144;25.200;2023-02-19T09:02:09;100340.13;;;17.56;35.28
71149;BME280;59072;42.144;25.200;2023-02-19T09:04:37;100372.28;;;18.00;35.15
71149;BME280;59072;42.144;25.200;2023-02-19T09:07:02;100359.78;;;17.89;34.76
71149;BME280;59072;42.144;25.200;2023-02-19T09:09:37;100351.34;;;17.80;35.24
71149;BME280;59072;42.144;25.200;2023-02-19T09:12:10;100344.63;;;18.25;35.33
71149;BME280;59072;42.144;25.200;2023-02-19T09:14:36;100344.44;;;18.53;34.42
71149;BME280;59072;42.144;25.200;2023-02-19T09:17:03;100354.72;;;18.61;33.84
71149;BME280;59072;42.144;25.200;2023-02-19T09:19:30;100348.56;;;18.65;34.11
71149;BME280;59072;42.144;25.200;2023-02-19T09:21:55;100362.34;;;18.74;34.17
71149;BME280;59072;42.144;25.200;2023-02-19T09:24:22;100340.97;;;18.62;33.91
71149;BME280;59072;42.144;25.200;2023-02-19T09:26:48;100358.66;;;19.06;34.05
71149;BME280;59072;42.144;25.200;2023-02-19T09:29:14;100340.28;;;19.39;33.01
71149;BME280;59072;42.144;25.200;2023-02-19T09:31:40;100345.13;;;19.67;33.18
71149;BME280;59072;42.144;25.200;2023-02-19T09:34:05;100354.38;;;19.77;32.76
71149;BME280;59072;42.144;25.200;2023-02-19T09:36:33;100367.34;;;19.85;32.76
71149;BME280;59072;42.144;25.200;2023-02-19T09:38:59;100359.97;;;20.11;32.62
71149;BME280;59072;42.144;25.200;2023-02-19T09:41:31;100361.56;;;20.22;32.49
71149;BME280;59072;42.144;25.200;2023-02-19T09:43:59;100358.09;;;20.17;31.62
71149;BME280;59072;42.144;25.200;2023-02-19T09:46:35;100330.56;;;19.74;32.49
71149;BME280;59072;42.144;25.200;2023-02-19T09:49:05;100348.31;;;20.16;32.68
71149;BME280;59072;42.144;25.200;2023-02-19T09:51:35;100334.69;;;20.36;31.48
71149;BME280;59072;42.144;25.200;2023-02-19T09:54:03;100345.13;;;19.98;31.61
71149;BME280;59072;42.144;25.200;2023-02-19T09:56:31;100324.03;;;19.85;32.46
71149;BME280;59072;42.144;25.200;2023-02-19T09:58:58;100336.22;;;19.93;32.00
71149;BME280;59072;42.144;25.200;2023-02-19T10:01:27;100304.72;;;20.17;32.05
71149;BME280;59072;42.144;25.200;2023-02-19T10:03:55;100314.53;;;20.68;32.13
71149;BME280;59072;42.144;25.200;2023-02-19T10:08:49;100305.31;;;20.09;30.66
71149;BME280;59072;42.144;25.200;2023-02-19T10:11:16;100300.19;;;19.97;30.92
71149;BME280;59072;42.144;25.200;2023-02-19T10:13:48;100289.94;;;19.63;31.35
71149;BME280;59072;42.144;25.200;2023-02-19T10:16:21;100289.41;;;19.87;31.64
71149;BME280;59072;42.144;25.200;2023-02-19T10:18:48;100278.50;;;20.07;31.15
71149;BME280;59072;42.144;25.200;2023-02-19T10:21:22;100275.22;;;20.16;30.98
71149;BME280;59072;42.144;25.200;2023-02-19T10:23:53;100254.03;;;20.28;31.62
71149;BME280;59072;42.144;25.200;2023-02-19T10:26:25;100261.41;;;20.72;31.18
71149;BME280;59072;42.144;25.200;2023-02-19T10:28:51;100249.91;;;20.85;30.70
71149;BME280;59072;42.144;25.200;2023-02-19T10:31:22;100249.91;;;20.85;30.93
71149;BME280;59072;42.144;25.200;2023-02-19T10:33:56;100225.13;;;20.68;30.12
71149;BME280;59072;42.144;25.200;2023-02-19T10:36:31;100238.69;;;20.58;30.76
71149;BME280;59072;42.144;25.200;2023-02-19T10:38:58;100244.13;;;20.58;30.86
71149;BME280;59072;42.144;25.200;2023-02-19T10:41:26;100250.50;;;20.77;30.11
71149;BME280;59072;42.144;25.200;2023-02-19T10:44:06;100247.66;;;21.27;29.99
71149;BME280;59072;42.144;25.200;2023-02-19T10:46:35;100237.66;;;21.22;29.28
71149;BME280;59072;42.144;25.200;2023-02-19T10:49:04;100239.22;;;21.28;29.01
71149;BME280;59072;42.144;25.200;2023-02-19T10:51:34;100231.91;;;21.58;28.92
71149;BME280;59072;42.144;25.200;2023-02-19T10:54:32;100228.56;;;21.66;28.58
71149;BME280;59072;42.144;25.200;2023-02-19T10:59:51;100209.31;;;23.01;27.68
71149;BME280;59072;42.144;25.200;2023-02-19T11:02:19;100218.38;;;22.77;27.89
71149;BME280;59072;42.144;25.200;2023-02-19T11:07:28;100197.34;;;22.83;27.24
71149;BME280;59072;42.144;25.200;2023-02-19T11:09:55;100194.69;;;22.64;27.67
71149;BME280;59072;42.144;25.200;2023-02-19T11:12:30;100191.19;;;22.77;27.24
71149;BME280;59072;42.144;25.200;2023-02-19T11:15:48;100190.94;;;22.22;27.57
71149;BME280;59072;42.144;25.200;2023-02-19T11:20:55;100185.56;;;22.17;27.75
71149;BME280;59072;42.144;25.200;2023-02-19T11:23:25;100174.25;;;21.91;28.63
71149;BME280;59072;42.144;25.200;2023-02-19T11:25:53;100176.78;;;22.25;28.12
71149;BME280;59072;42.144;25.200;2023-02-19T11:28:27;100181.44;;;22.76;27.66
71149;BME280;59072;42.144;25.200;2023-02-19T11:30:54;100162.22;;;22.54;27.55
71149;BME280;59072;42.144;25.200;2023-02-19T11:33:23;100153.13;;;22.77;27.69
71149;BME280;59072;42.144;25.200;2023-02-19T11:38:42;100157.56;;;23.20;26.75
71149;BME280;59072;42.144;25.200;2023-02-19T11:51:33;100152.09;;;23.06;27.33
71149;BME280;59072;42.144;25.200;2023-02-19T11:56:36;100121.59;;;23.37;26.78
71149;BME280;59072;42.144;25.200;2023-02-19T11:59:33;100131.47;;;23.33;26.79
71149;BME280;59072;42.144;25.200;2023-02-19T12:02:36;100125.69;;;22.93;26.84
71149;BME280;59072;42.144;25.200;2023-02-19T12:05:39;100101.31;;;23.29;26.88
71149;BME280;59072;42.144;25.200;2023-02-19T12:10:52;100113.22;;;23.33;26.76
71149;BME280;59072;42.144;25.200;2023-02-19T12:21:42;100092.38;;;23.29;26.67
71149;BME280;59072;42.144;25.200;2023-02-19T12:29:45;100095.44;;;23.63;26.99
71149;BME280;59072;42.144;25.200;2023-02-19T12:40:49;100073.16;;;23.75;26.06
71149;BME280;59072;42.144;25.200;2023-02-19T12:43:23;100074.88;;;24.30;26.38
71149;BME280;59072;42.144;25.200;2023-02-19T12:48:30;100056.13;;;25.31;24.83
71149;BME280;59072;42.144;25.200;2023-02-19T12:51:04;100068.03;;;25.44;23.99
71149;BME280;59072;42.144;25.200;2023-02-19T12:53:46;100057.63;;;25.06;24.50
71149;BME280;59072;42.144;25.200;2023-02-19T12:56:33;100065.31;;;25.44;23.67
71149;BME280;59072;42.144;25.200;2023-02-19T12:59:04;100046.69;;;25.72;23.29
71149;BME280;59072;42.144;25.200;2023-02-19T13:01:34;100049.94;;;25.83;22.66
71149;BME280;59072;42.144;25.200;2023-02-19T13:07:15;100051.34;;;25.72;22.82
71149;BME280;59072;42.144;25.200;2023-02-19T13:09:50;100033.19;;;26.28;23.18
71149;BME280;59072;42.144;25.200;2023-02-19T13:12:37;100039.06;;;26.65;21.93
71149;BME280;59072;42.144;25.200;2023-02-19T13:15:23;100034.03;;;26.02;22.16
71149;BME280;59072;42.144;25.200;2023-02-19T13:17:54;100028.06;;;26.18;22.41
71149;BME280;59072;42.144;25.200;2023-02-19T13:20:36;100034.69;;;26.64;21.59
71149;BME280;59072;42.144;25.200;2023-02-19T13:23:25;100024.78;;;26.42;21.76
71149;BME280;59072;42.144;25.200;2023-02-19T13:37:01;100000.34;;;28.43;19.69
71149;BME280;59072;42.144;25.200;2023-02-19T13:39:27;100003.44;;;29.40;18.63
71149;BME280;59072;42.144;25.200;2023-02-19T13:41:57;100006.13;;;28.63;19.68
71149;BME280;59072;42.144;25.200;2023-02-19T13:44:30;100005.22;;;28.71;19.36
71149;BME280;59072;42.144;25.200;2023-02-19T13:46:57;99997.09;;;29.52;18.69
71149;BME280;59072;42.144;25.200;2023-02-19T14:01:01;99959.66;;;31.54;16.10
71149;BME280;59072;42.144;25.200;2023-02-19T14:03:44;99980.06;;;32.12;16.42
71149;BME280;59072;42.144;25.200;2023-02-19T14:06:11;99976.63;;;31.76;16.66
71149;BME280;59072;42.144;25.200;2023-02-19T14:08:56;99963.34;;;32.24;16.67
71149;BME280;59072;42.144;25.200;2023-02-19T14:14:25;99964.50;;;32.23;16.31
71149;BME280;59072;42.144;25.200;2023-02-19T14:16:58;99955.97;;;32.81;15.94
71149;BME280;59072;42.144;25.200;2023-02-19T14:19:45;99970.81;;;32.70;15.26
71149;BME280;59072;42.144;25.200;2023-02-19T14:28:03;99941.78;;;33.40;14.99
71149;BME280;59072;42.144;25.200;2023-02-19T14:30:32;99951.59;;;33.34;15.25
71149;BME280;59072;42.144;25.200;2023-02-19T14:33:00;99938.50;;;34.02;14.78
71149;BME280;59072;42.144;25.200;2023-02-19T14:35:39;99944.03;;;34.47;14.02
71149;BME280;59072;42.144;25.200;2023-02-19T14:38:05;99939.53;;;34.72;14.30
71149;BME280;59072;42.144;25.200;2023-02-19T14:40:37;99934.75;;;34.66;13.50
71149;BME280;59072;42.144;25.200;2023-02-19T14:43:10;99923.94;;;34.53;14.56
71149;BME280;59072;42.144;25.200;2023-02-19T14:45:44;99938.41;;;33.91;14.88
71149;BME280;59072;42.144;25.200;2023-02-19T14:48:31;99942.78;;;34.33;14.44
71149;BME280;59072;42.144;25.200;2023-02-19T14:54:03;99936.19;;;34.08;14.60
71149;BME280;59072;42.144;25.200;2023-02-19T14:56:33;99920.38;;;34.05;14.67